Time;durP1;ratioP1;P1;durP2;ratioP2;P2;SDS_P1;SDS_P2;PMS_P1;PMS_P2;Temp;Humidity;BMP_temperature;BMP_pressure;BME280_temperature;BME280_humidity;BME280_pressure;Samples;Min_cycle;Max_cycle;Signal;HPM_P1;HPM_P2
2021/01/07 00:01:13;;;;;;;7.20;3.45;;;2.80;99.90;;;;;;5088569;28;20063;-67
2021/01/07 00:03:38;;;;;;;4.78;2.75;;;2.90;99.90;;;;;;5076757;28;20132;-67
2021/01/07 00:06:09;;;;;;;8.02;2.42;;;2.90;99.90;;;;;;5102918;28;20113;-67
2021/01/07 00:08:35;;;;;;;8.18;2.60;;;3.00;99.90;;;;;;5101202;28;20015;-68
2021/01/07 00:11:06;;;;;;;5.47;2.47;;;3.00;99.90;;;;;;5103236;28;20032;-66
2021/01/07 00:13:32;;;;;;;4.18;2.15;;;3.10;99.90;;;;;;5109331;28;20088;-67
2021/01/07 00:15:58;;;;;;;3.70;1.92;;;3.10;99.90;;;;;;5108996;28;20166;-67
2021/01/07 00:18:24;;;;;;;4.85;2.42;;;3.10;99.90;;;;;;5101392;28;20519;-67
2021/01/07 00:20:50;;;;;;;3.20;2.20;;;3.00;99.90;;;;;;5108387;28;20026;-65
2021/01/07 00:23:15;;;;;;;5.05;2.17;;;3.10;99.90;;;;;;5104192;28;20377;-67
2021/01/07 00:25:49;;;;;;;7.53;2.20;;;3.10;99.90;;;;;;5092975;28;20073;-67
2021/01/07 00:28:15;;;;;;;3.05;2.00;;;3.30;99.90;;;;;;5097201;28;20054;-67
2021/01/07 00:30:42;;;;;;;5.15;2.58;;;3.40;99.90;;;;;;5099474;28;20385;-66
2021/01/07 00:33:08;;;;;;;7.75;2.35;;;3.30;99.90;;;;;;5108565;28;20032;-66
2021/01/07 00:35:34;;;;;;;4.65;2.08;;;3.30;99.90;;;;;;5107814;28;20165;-65
2021/01/07 00:37:59;;;;;;;4.07;2.60;;;3.30;99.90;;;;;;5101800;28;20032;-65
2021/01/07 00:40:26;;;;;;;5.95;2.65;;;3.30;99.90;;;;;;5104782;28;20051;-67
2021/01/07 00:42:52;;;;;;;4.25;2.95;;;3.20;99.90;;;;;;5100080;28;20020;-66
2021/01/07 00:45:18;;;;;;;3.50;2.42;;;3.30;99.90;;;;;;5102839;28;20032;-66
2021/01/07 00:47:45;;;;;;;4.70;2.70;;;3.30;99.90;;;;;;5112578;27;20082;-67
2021/01/07 00:50:12;;;;;;;5.95;2.92;;;3.10;99.90;;;;;;5113458;28;20032;-67
2021/01/07 00:52:41;;;;;;;11.38;2.55;;;3.10;99.90;;;;;;5103175;28;20032;-67
2021/01/07 00:55:08;;;;;;;5.78;2.80;;;3.10;99.90;;;;;;5111409;28;20042;-65
2021/01/07 00:57:35;;;;;;;7.55;2.90;;;3.00;99.90;;;;;;5103956;28;20234;-67
2021/01/07 01:00:03;;;;;;;8.73;2.47;;;2.90;99.90;;;;;;5103209;28;20093;-66
2021/01/07 01:02:29;;;;;;;5.32;2.30;;;2.80;99.90;;;;;;5108299;28;20030;-66
2021/01/07 01:04:54;;;;;;;4.15;2.58;;;2.90;99.90;;;;;;5105832;28;20051;-66
2021/01/07 01:07:20;;;;;;;5.90;2.65;;;3.10;99.90;;;;;;5112258;28;20087;-66
2021/01/07 01:09:46;;;;;;;5.43;2.60;;;3.20;99.90;;;;;;5112675;28;20395;-66
2021/01/07 01:12:11;;;;;;;3.85;2.25;;;3.10;99.90;;;;;;5111277;27;20024;-67
2021/01/07 01:14:37;;;;;;;6.30;2.53;;;3.00;99.90;;;;;;5128764;27;20031;-66
2021/01/07 01:17:03;;;;;;;4.05;2.30;;;2.80;99.90;;;;;;5111324;28;20031;-66
2021/01/07 01:19:29;;;;;;;5.05;2.65;;;2.70;99.90;;;;;;5108417;27;20122;-66
2021/01/07 01:21:55;;;;;;;2.92;1.92;;;2.80;99.90;;;;;;5103584;27;20118;-67
2021/01/07 01:24:20;;;;;;;4.15;2.42;;;2.80;99.90;;;;;;5115977;27;20019;-66
2021/01/07 01:26:55;;;;;;;4.88;2.40;;;2.70;99.90;;;;;;5127970;27;20118;-71
2021/01/07 01:29:21;;;;;;;6.93;2.20;;;2.60;99.90;;;;;;5112916;27;20023;-71
2021/01/07 01:31:51;;;;;;;4.20;2.38;;;2.60;99.90;;;;;;5112392;27;20447;-68
2021/01/07 01:34:18;;;;;;;4.82;2.45;;;2.50;99.90;;;;;;5108583;28;20012;-68
2021/01/07 01:36:43;;;;;;;8.23;2.65;;;2.40;99.90;;;;;;5110435;28;20141;-70
2021/01/07 01:39:10;;;;;;;9.57;2.47;;;2.40;99.90;;;;;;5108969;27;20115;-70
2021/01/07 01:41:54;;;;;;;5.70;2.70;;;2.40;99.90;;;;;;5104723;28;20019;-72
2021/01/07 01:44:23;;;;;;;12.60;3.08;;;2.30;99.90;;;;;;5095858;27;20070;-72
2021/01/07 01:46:48;;;;;;;8.35;3.13;;;2.30;99.90;;;;;;5126175;27;20038;-70
2021/01/07 01:49:14;;;;;;;7.78;2.90;;;2.40;99.90;;;;;;5120492;27;20027;-69
2021/01/07 01:51:41;;;;;;;5.88;3.00;;;2.50;99.90;;;;;;5124361;27;20043;-69
2021/01/07 01:54:07;;;;;;;6.10;3.40;;;2.50;99.90;;;;;;5117535;27;20038;-69
2021/01/07 01:56:33;;;;;;;9.98;3.47;;;2.50;99.90;;;;;;5109869;27;20020;-67
2021/01/07 01:59:00;;;;;;;9.02;3.70;;;2.50;99.90;;;;;;5106408;28;20062;-69
2021/01/07 02:01:26;;;;;;;7.32;3.90;;;2.50;99.90;;;;;;5110339;28;20039;-68
2021/01/07 02:03:52;;;;;;;11.52;4.22;;;2.50;99.90;;;;;;5108032;27;20044;-72
2021/01/07 02:06:20;;;;;;;9.88;3.78;;;2.50;99.90;;;;;;5106423;28;20030;-70
2021/01/07 02:08:47;;;;;;;8.63;4.55;;;2.50;99.90;;;;;;5090579;28;20035;-70
2021/01/07 02:11:15;;;;;;;8.45;4.38;;;2.50;99.90;;;;;;5096622;28;20043;-70
2021/01/07 02:13:48;;;;;;;8.68;4.85;;;2.60;99.90;;;;;;5087983;28;20028;-70
2021/01/07 02:16:20;;;;;;;7.88;4.30;;;2.50;99.90;;;;;;5083808;28;20055;-70
2021/01/07 02:18:46;;;;;;;;;;;2.60;99.90;;;;;;5089759;28;20039;-68
2021/01/07 02:21:13;;;;;;;7.97;3.63;;;2.70;99.90;;;;;;5100077;28;20272;-68
2021/01/07 02:23:52;;;;;;;11.43;5.30;;;2.80;99.90;;;;;;5096998;28;20354;-69
2021/01/07 02:26:19;;;;;;;8.57;5.47;;;2.90;99.90;;;;;;5089114;28;20020;-67
2021/01/07 02:28:45;;;;;;;11.52;4.90;;;3.00;99.90;;;;;;5088946;28;20452;-67
2021/01/07 02:31:11;;;;;;;10.20;5.45;;;3.00;99.90;;;;;;5090257;28;20028;-69
2021/01/07 02:33:37;;;;;;;10.18;6.43;;;2.90;99.90;;;;;;5087432;28;20465;-69
2021/01/07 02:36:03;;;;;;;8.73;5.22;;;3.00;99.90;;;;;;5089603;28;20024;-68
2021/01/07 02:38:28;;;;;;;10.38;6.65;;;3.00;99.90;;;;;;5101662;28;20034;-69
2021/01/07 02:40:54;;;;;;;12.60;6.40;;;2.90;99.90;;;;;;5091326;28;20028;-68
2021/01/07 02:43:19;;;;;;;10.60;6.00;;;2.90;99.90;;;;;;5083705;28;20040;-69
2021/01/07 02:45:47;;;;;;;14.35;7.00;;;2.90;99.90;;;;;;5089687;28;20024;-67
2021/01/07 02:48:12;;;;;;;12.43;7.18;;;3.00;99.90;;;;;;5092903;28;20471;-69
2021/01/07 02:50:38;;;;;;;8.80;6.43;;;2.80;99.90;;;;;;5099466;28;20030;-69
2021/01/07 02:53:03;;;;;;;11.65;6.72;;;2.80;99.90;;;;;;5088473;28;20492;-68
2021/01/07 02:55:29;;;;;;;12.82;6.63;;;2.70;99.90;;;;;;5090358;28;20542;-68
2021/01/07 02:57:54;;;;;;;9.30;5.60;;;2.70;99.90;;;;;;5068653;28;20119;-69
2021/01/07 03:00:20;;;;;;;9.45;5.47;;;2.70;99.90;;;;;;5089854;28;20024;-67
2021/01/07 03:02:45;;;;;;;7.80;5.10;;;2.70;99.90;;;;;;5086908;28;20039;-70
2021/01/07 03:05:11;;;;;;;11.38;5.72;;;2.70;99.90;;;;;;5121298;27;20095;-70
2021/01/07 03:07:38;;;;;;;9.15;5.55;;;2.70;99.90;;;;;;5109894;28;20047;-68
2021/01/07 03:10:11;;;;;;;11.13;5.60;;;2.80;99.90;;;;;;5119922;27;20028;-70
2021/01/07 03:12:38;;;;;;;8.43;4.65;;;2.80;99.90;;;;;;5101513;27;20034;-69
2021/01/07 03:15:05;;;;;;;7.43;4.82;;;3.00;99.90;;;;;;5113071;27;20020;-69
2021/01/07 03:17:31;;;;;;;9.00;4.78;;;2.90;99.90;;;;;;5106102;28;20380;-69
2021/01/07 03:19:56;;;;;;;6.35;4.10;;;3.00;99.90;;;;;;5110149;28;20098;-69
2021/01/07 03:22:22;;;;;;;6.20;4.13;;;3.10;99.90;;;;;;5102913;28;20023;-68
2021/01/07 03:24:47;;;;;;;6.68;3.70;;;3.10;99.90;;;;;;5112735;27;20031;-69
2021/01/07 03:27:13;;;;;;;7.03;3.50;;;3.20;99.90;;;;;;5095185;28;20011;-68
2021/01/07 03:29:38;;;;;;;7.00;4.43;;;3.10;99.90;;;;;;5109785;28;20472;-68
2021/01/07 03:32:04;;;;;;;6.03;3.83;;;3.00;99.90;;;;;;5108895;28;20492;-69
2021/01/07 03:34:30;;;;;;;5.50;3.63;;;3.00;99.90;;;;;;5101178;28;20598;-68
2021/01/07 03:36:55;;;;;;;7.80;3.70;;;3.00;99.90;;;;;;5103641;27;20046;-69
2021/01/07 03:39:21;;;;;;;7.22;4.35;;;3.10;99.90;;;;;;5126368;27;20023;-67
2021/01/07 03:41:46;;;;;;;6.00;3.65;;;3.20;99.90;;;;;;5110702;27;20031;-68
2021/01/07 03:44:12;;;;;;;8.05;4.03;;;3.20;99.90;;;;;;5107496;28;20023;-69
2021/01/07 03:46:38;;;;;;;9.50;4.30;;;3.10;99.90;;;;;;5111414;27;20107;-69
2021/01/07 03:49:05;;;;;;;7.25;3.55;;;3.10;99.90;;;;;;5110026;27;20024;-69
2021/01/07 03:51:30;;;;;;;10.55;4.60;;;3.10;99.90;;;;;;5104389;28;20057;-69
2021/01/07 03:53:56;;;;;;;7.97;4.78;;;3.10;99.90;;;;;;5104277;28;20032;-69
2021/01/07 03:56:21;;;;;;;8.05;4.30;;;3.20;99.90;;;;;;5107923;28;20480;-69
2021/01/07 03:58:47;;;;;;;13.15;4.70;;;3.20;99.90;;;;;;5103709;28;20420;-69
2021/01/07 04:01:12;;;;;;;8.48;4.90;;;3.20;99.90;;;;;;5102731;28;20068;-70
2021/01/07 04:03:38;;;;;;;12.40;5.88;;;3.20;99.90;;;;;;5106854;28;20157;-70
2021/01/07 04:06:03;;;;;;;7.95;5.07;;;3.30;99.90;;;;;;5108978;28;20028;-69
2021/01/07 04:08:29;;;;;;;7.15;4.50;;;3.30;99.90;;;;;;5109235;28;20435;-70
2021/01/07 04:10:56;;;;;;;12.48;5.50;;;3.40;99.90;;;;;;5110797;27;20046;-69
2021/01/07 04:13:22;;;;;;;11.85;5.60;;;3.30;99.90;;;;;;5110617;28;20042;-70
2021/01/07 04:15:48;;;;;;;9.65;5.30;;;3.30;99.90;;;;;;5112086;27;20386;-69
2021/01/07 04:18:13;;;;;;;13.00;6.25;;;3.30;99.90;;;;;;5109217;28;20023;-70
2021/01/07 04:20:39;;;;;;;11.20;5.95;;;3.30;99.90;;;;;;5108379;28;20449;-70
2021/01/07 04:23:05;;;;;;;9.98;5.65;;;3.30;99.90;;;;;;5108167;28;20039;-69
2021/01/07 04:25:30;;;;;;;10.65;6.22;;;3.30;99.90;;;;;;5104680;28;20024;-70
2021/01/07 04:27:56;;;;;;;12.10;6.32;;;3.30;99.90;;;;;;5107319;28;20033;-71
2021/01/07 04:30:22;;;;;;;13.55;6.57;;;3.30;99.90;;;;;;5116083;28;20029;-73
2021/01/07 04:32:48;;;;;;;8.70;4.60;;;3.20;99.90;;;;;;5109250;28;20158;-68
2021/01/07 04:35:14;;;;;;;13.23;6.20;;;3.30;99.90;;;;;;5120119;28;20514;-70
2021/01/07 04:37:39;;;;;;;10.75;6.05;;;3.30;99.90;;;;;;5115062;28;20068;-70
2021/01/07 04:40:05;;;;;;;11.20;6.55;;;3.20;99.90;;;;;;5121803;27;20031;-68
2021/01/07 04:42:31;;;;;;;10.70;6.25;;;3.20;99.90;;;;;;5115867;28;20742;-68
2021/01/07 04:44:57;;;;;;;11.60;6.95;;;3.30;99.90;;;;;;5110159;28;20023;-69
2021/01/07 04:47:24;;;;;;;13.45;7.15;;;3.30;99.90;;;;;;5124329;28;20015;-70
2021/01/07 04:49:51;;;;;;;9.27;6.03;;;3.40;99.90;;;;;;5122640;28;20520;-70
2021/01/07 04:52:16;;;;;;;9.82;5.50;;;3.30;99.90;;;;;;5117405;28;20126;-70
2021/01/07 04:54:44;;;;;;;14.73;6.30;;;3.40;99.90;;;;;;5100291;28;20115;-70
2021/01/07 04:57:09;;;;;;;11.80;6.60;;;3.30;99.90;;;;;;5123499;27;20546;-70
2021/01/07 04:59:35;;;;;;;13.98;6.60;;;3.20;99.90;;;;;;5121052;28;20114;-70
2021/01/07 05:02:02;;;;;;;15.32;6.63;;;3.20;99.90;;;;;;5117233;28;20028;-70
2021/01/07 05:04:27;;;;;;;10.65;5.45;;;3.10;99.90;;;;;;5104381;27;20035;-69
2021/01/07 05:06:53;;;;;;;12.93;6.22;;;3.10;99.90;;;;;;5100687;28;20595;-69
2021/01/07 05:09:18;;;;;;;15.32;6.90;;;3.20;99.90;;;;;;5088994;28;20032;-70
2021/01/07 05:11:44;;;;;;;13.57;6.45;;;3.10;99.90;;;;;;5086459;28;20031;-70
2021/01/07 05:14:10;;;;;;;12.43;6.60;;;3.10;99.90;;;;;;5100956;28;20038;-68
2021/01/07 05:16:36;;;;;;;14.95;6.13;;;3.10;99.90;;;;;;5084328;28;20131;-70
2021/01/07 05:19:04;;;;;;;12.95;5.97;;;3.00;99.90;;;;;;5085697;28;20595;-70
2021/01/07 05:21:30;;;;;;;9.82;4.63;;;3.00;99.90;;;;;;5097275;28;20038;-73
2021/01/07 05:23:57;;;;;;;9.77;4.10;;;3.00;99.90;;;;;;5086537;28;20492;-69
2021/01/07 05:26:23;;;;;;;8.90;4.10;;;2.80;99.90;;;;;;5081505;28;20538;-70
2021/01/07 05:28:51;;;;;;;6.90;4.38;;;2.70;99.90;;;;;;5090207;28;20040;-70
2021/01/07 05:31:18;;;;;;;4.40;3.33;;;2.80;99.90;;;;;;5082591;28;20392;-71
2021/01/07 05:33:44;;;;;;;3.65;2.60;;;2.70;99.90;;;;;;5094970;28;20021;-71
2021/01/07 05:36:20;;;;;;;9.23;3.17;;;2.70;99.90;;;;;;5094062;28;20083;-70
2021/01/07 05:38:46;;;;;;;4.63;1.63;;;2.70;99.90;;;;;;5062225;28;20027;-69
2021/01/07 05:41:13;;;;;;;6.05;2.40;;;2.70;99.90;;;;;;5090541;28;20038;-70
2021/01/07 05:43:39;;;;;;;3.70;1.83;;;2.70;99.90;;;;;;5087577;28;20016;-70
2021/01/07 05:46:07;;;;;;;5.78;2.20;;;2.70;99.90;;;;;;5089520;28;20024;-70
2021/01/07 05:48:33;;;;;;;6.03;2.20;;;2.80;99.90;;;;;;5091213;28;20096;-68
2021/01/07 05:51:03;;;;;;;3.60;2.20;;;2.90;99.90;;;;;;5090080;28;20099;-70
2021/01/07 05:53:32;;;;;;;6.13;2.38;;;3.00;99.90;;;;;;5081786;28;20028;-70
2021/01/07 05:55:58;;;;;;;3.17;2.38;;;3.10;99.90;;;;;;5092862;28;20024;-70
2021/01/07 05:58:24;;;;;;;10.05;2.80;;;3.20;99.90;;;;;;5084977;28;20043;-72
2021/01/07 06:00:53;;;;;;;5.75;2.78;;;3.20;99.90;;;;;;5089670;28;20106;-70
2021/01/07 06:03:22;;;;;;;5.97;2.40;;;3.30;99.90;;;;;;5103928;28;20023;-70
2021/01/07 06:05:49;;;;;;;4.32;2.75;;;3.40;99.90;;;;;;5090559;28;20534;-70
2021/01/07 06:08:16;;;;;;;3.28;2.05;;;3.30;99.90;;;;;;5111445;27;20070;-68
2021/01/07 06:10:45;;;;;;;7.00;2.38;;;3.20;99.90;;;;;;5116547;27;20031;-71
2021/01/07 06:13:11;;;;;;;12.07;3.40;;;3.20;99.90;;;;;;5107069;27;20280;-69
2021/01/07 06:15:38;;;;;;;6.10;2.75;;;3.20;99.90;;;;;;5121649;27;20569;-69
2021/01/07 06:18:05;;;;;;;5.10;2.72;;;3.10;99.90;;;;;;5116533;27;20537;-69
2021/01/07 06:20:34;;;;;;;3.95;2.58;;;3.20;99.90;;;;;;5128698;27;20030;-69
2021/01/07 06:23:01;;;;;;;7.30;2.45;;;3.20;99.90;;;;;;5123012;27;20031;-69
2021/01/07 06:25:26;;;;;;;5.05;3.28;;;3.20;99.90;;;;;;5140812;27;20066;-69
2021/01/07 06:27:53;;;;;;;6.70;2.80;;;3.10;99.90;;;;;;5146489;27;20012;-70
2021/01/07 06:30:19;;;;;;;7.00;2.53;;;3.10;99.90;;;;;;5148076;27;20023;-70
2021/01/07 06:32:48;;;;;;;5.18;3.00;;;3.10;99.90;;;;;;5143837;27;20022;-70
2021/01/07 06:35:16;;;;;;;3.67;2.55;;;3.10;99.90;;;;;;5114195;28;20031;-69
2021/01/07 06:37:42;;;;;;;5.07;2.22;;;3.00;99.90;;;;;;5114467;28;20476;-71
2021/01/07 06:40:11;;;;;;;5.28;2.80;;;3.00;99.90;;;;;;5116421;27;20012;-69
2021/01/07 06:42:38;;;;;;;3.97;2.20;;;3.00;99.90;;;;;;5121456;27;20077;-71
2021/01/07 06:45:05;;;;;;;6.10;2.30;;;3.00;99.90;;;;;;5111613;27;20035;-71
2021/01/07 06:47:32;;;;;;;3.42;1.67;;;2.90;99.90;;;;;;5099599;27;20031;-69
2021/01/07 06:49:59;;;;;;;5.70;2.05;;;2.90;99.90;;;;;;5108946;28;20454;-70
2021/01/07 06:52:26;;;;;;;2.75;1.67;;;2.90;99.90;;;;;;5108567;27;20057;-69
2021/01/07 06:54:55;;;;;;;2.92;1.48;;;2.90;99.90;;;;;;5108847;27;20030;-69
2021/01/07 06:57:22;;;;;;;9.40;1.52;;;3.00;99.90;;;;;;5109854;27;20020;-70
2021/01/07 06:59:58;;;;;;;8.82;1.50;;;3.00;99.90;;;;;;5109715;27;20504;-69
2021/01/07 07:02:28;;;;;;;3.25;1.92;;;3.00;99.90;;;;;;5127744;27;20031;-70
2021/01/07 07:05:06;;;;;;;3.03;1.70;;;3.00;99.90;;;;;;5128009;27;20089;-70
2021/01/07 07:07:38;;;;;;;2.70;1.60;;;3.00;99.90;;;;;;5125046;27;20115;-67
2021/01/07 07:10:19;;;;;;;6.07;2.17;;;3.00;99.90;;;;;;5109388;28;20503;-71
2021/01/07 07:12:52;;;;;;;3.47;1.38;;;3.00;99.90;;;;;;5108730;28;20028;-70
2021/01/07 07:15:24;;;;;;;2.17;1.60;;;3.10;99.90;;;;;;5098959;28;20709;-69
2021/01/07 07:17:55;;;;;;;5.30;2.00;;;3.10;99.90;;;;;;5110189;27;20167;-69
2021/01/07 07:20:24;;;;;;;11.73;2.17;;;3.00;99.90;;;;;;5128903;27;20031;-70
2021/01/07 07:22:50;;;;;;;3.15;1.88;;;3.10;99.90;;;;;;5112056;27;20334;-70
2021/01/07 07:25:22;;;;;;;2.75;2.08;;;3.10;99.90;;;;;;5122420;27;20023;-69
2021/01/07 07:28:02;;;;;;;3.75;2.17;;;3.10;99.90;;;;;;5110508;27;20038;-69
2021/01/07 07:30:30;;;;;;;5.20;2.20;;;3.10;99.90;;;;;;5111769;27;20062;-71
2021/01/07 07:32:57;;;;;;;5.22;2.80;;;3.00;99.90;;;;;;5112110;27;20031;-70
2021/01/07 07:35:26;;;;;;;3.38;2.22;;;3.00;99.90;;;;;;5109209;27;20036;-68
2021/01/07 07:37:53;;;;;;;3.45;1.77;;;3.00;99.90;;;;;;5100544;28;20027;-68
2021/01/07 07:40:37;;;;;;;3.28;2.25;;;3.00;99.90;;;;;;5116966;27;20027;-70
2021/01/07 07:43:04;;;;;;;3.03;2.10;;;2.90;99.90;;;;;;5130824;27;20023;-69
2021/01/07 07:45:35;;;;;;;4.82;2.15;;;2.90;99.90;;;;;;5128621;27;20080;-67
2021/01/07 07:48:02;;;;;;;5.88;2.20;;;2.90;99.90;;;;;;5109540;28;20527;-70
2021/01/07 07:50:29;;;;;;;7.22;2.20;;;3.00;99.90;;;;;;5107924;28;20047;-68
2021/01/07 07:53:08;;;;;;;4.97;2.50;;;3.00;99.90;;;;;;5108827;28;20031;-68
2021/01/07 07:55:39;;;;;;;2.97;2.65;;;3.00;99.90;;;;;;5109106;28;20169;-69
2021/01/07 07:58:12;;;;;;;5.28;2.78;;;3.00;99.90;;;;;;5107513;28;20794;-68
2021/01/07 08:00:38;;;;;;;3.22;2.50;;;3.00;99.90;;;;;;5115008;27;20011;-70
2021/01/07 08:03:06;;;;;;;7.72;2.65;;;3.00;99.90;;;;;;5117773;27;20015;-71
2021/01/07 08:05:33;;;;;;;6.72;2.70;;;3.00;99.90;;;;;;5125831;27;20075;-70
2021/01/07 08:08:01;;;;;;;8.00;2.97;;;3.00;99.90;;;;;;5118987;27;20024;-70
2021/01/07 08:10:27;;;;;;;7.30;3.20;;;3.00;99.90;;;;;;5123770;27;20204;-69
2021/01/07 08:12:53;;;;;;;5.50;2.67;;;3.10;99.90;;;;;;5128286;27;20041;-70
2021/01/07 08:15:32;;;;;;;3.85;2.80;;;3.00;99.90;;;;;;5114177;27;20054;-69
2021/01/07 08:18:17;;;;;;;4.18;2.67;;;3.10;99.90;;;;;;5120940;27;20031;-69
2021/01/07 08:20:44;;;;;;;4.95;1.92;;;3.10;99.90;;;;;;5108774;28;20970;-71
2021/01/07 08:23:11;;;;;;;2.50;1.60;;;3.00;99.90;;;;;;5108942;28;20027;-69
2021/01/07 08:25:38;;;;;;;2.40;1.40;;;3.00;99.90;;;;;;5109120;28;20023;-71
2021/01/07 08:28:27;;;;;;;1.88;1.30;;;3.10;99.90;;;;;;5108664;28;20277;-70
2021/01/07 08:30:56;;;;;;;2.97;1.75;;;3.00;99.90;;;;;;5119015;28;20090;-69
2021/01/07 08:33:25;;;;;;;3.78;1.65;;;3.00;99.90;;;;;;5108782;28;20454;-71
2021/01/07 08:35:52;;;;;;;2.78;1.65;;;3.10;99.90;;;;;;5113530;28;20471;-72
2021/01/07 08:38:31;;;;;;;4.72;1.90;;;3.00;99.90;;;;;;5129611;27;20027;-71
2021/01/07 08:41:21;;;;;;;4.22;2.00;;;3.10;99.90;;;;;;5109018;27;20036;-70
2021/01/07 08:43:52;;;;;;;6.65;2.08;;;3.20;99.90;;;;;;5108892;28;20024;-70
2021/01/07 08:46:18;;;;;;;4.20;1.80;;;3.10;99.90;;;;;;5109619;28;20050;-71
2021/01/07 08:48:55;;;;;;;7.03;1.50;;;3.10;99.90;;;;;;5109189;28;20031;-71
2021/01/07 08:51:22;;;;;;;1.83;1.27;;;3.10;99.90;;;;;;5094253;28;20031;-71
2021/01/07 08:53:53;;;;;;;4.60;1.10;;;3.00;99.90;;;;;;5107927;28;20020;-71
2021/01/07 08:56:35;;;;;;;3.00;0.98;;;2.90;99.90;;;;;;5107038;28;20058;-70
2021/01/07 08:59:33;;;;;;;4.72;1.17;;;2.90;99.90;;;;;;5104947;28;20026;-69
2021/01/07 09:02:01;;;;;;;1.67;1.30;;;2.90;99.90;;;;;;5092572;28;20484;-71
2021/01/07 09:04:51;;;;;;;4.82;1.50;;;2.90;99.90;;;;;;5112358;28;20047;-71
2021/01/07 09:07:21;;;;;;;1.63;0.85;;;2.90;99.90;;;;;;5106523;28;20099;-69
2021/01/07 09:09:48;;;;;;;8.68;1.02;;;2.90;99.90;;;;;;5115369;27;20384;-69
2021/01/07 09:12:33;;;;;;;1.85;1.20;;;2.90;99.90;;;;;;5118420;27;20031;-70
2021/01/07 09:15:26;;;;;;;3.53;0.90;;;2.90;99.90;;;;;;5114330;27;20051;-72
2021/01/07 09:17:56;;;;;;;2.78;1.13;;;2.90;99.90;;;;;;5103894;28;20027;-72
2021/01/07 09:20:29;;;;;;;1.40;0.88;;;3.00;99.90;;;;;;5114019;27;20365;-71
2021/01/07 09:23:05;;;;;;;4.13;1.13;;;3.10;99.90;;;;;;5110793;28;20519;-71
2021/01/07 09:25:31;;;;;;;6.35;1.30;;;3.00;99.90;;;;;;5113956;27;20051;-70
2021/01/07 09:27:58;;;;;;;5.10;1.08;;;2.90;99.90;;;;;;5111016;27;20035;-72
2021/01/07 09:30:25;;;;;;;3.00;1.35;;;2.80;99.90;;;;;;5112130;28;20098;-70
2021/01/07 09:32:54;;;;;;;7.50;1.25;;;2.80;99.90;;;;;;5109869;28;20381;-70
2021/01/07 09:35:20;;;;;;;8.07;1.80;;;2.80;99.90;;;;;;5111452;27;20024;-71
2021/01/07 09:37:48;;;;;;;3.47;1.10;;;2.80;99.90;;;;;;5111690;28;20110;-71
2021/01/07 09:40:15;;;;;;;7.07;1.48;;;2.90;99.90;;;;;;5110215;28;20433;-68
2021/01/07 09:42:40;;;;;;;5.22;1.60;;;2.90;99.90;;;;;;5111736;28;20015;-69
2021/01/07 09:45:10;;;;;;;8.55;1.73;;;2.90;99.90;;;;;;5120830;27;20714;-71
2021/01/07 09:47:36;;;;;;;5.85;1.60;;;3.00;99.90;;;;;;5122043;27;20020;-70
2021/01/07 09:50:13;;;;;;;8.43;2.08;;;3.00;99.90;;;;;;5111796;28;20028;-70
2021/01/07 09:52:39;;;;;;;2.10;1.67;;;3.10;99.90;;;;;;5097110;28;20468;-72
2021/01/07 09:55:07;;;;;;;8.57;3.05;;;3.10;99.90;;;;;;5111827;27;20032;-70
2021/01/07 09:57:34;;;;;;;7.20;1.70;;;3.10;99.90;;;;;;5103361;28;20039;-71
2021/01/07 10:00:00;;;;;;;7.68;1.88;;;3.20;99.90;;;;;;5089395;28;20028;-71
2021/01/07 10:02:26;;;;;;;4.93;1.92;;;3.20;99.90;;;;;;5111243;28;20035;-71
2021/01/07 10:04:51;;;;;;;4.85;2.05;;;3.20;99.90;;;;;;5102767;28;20489;-69
2021/01/07 10:07:17;;;;;;;10.45;1.85;;;3.20;99.90;;;;;;5110863;28;20077;-69
2021/01/07 10:09:42;;;;;;;7.18;1.70;;;3.30;99.90;;;;;;5111258;28;20111;-68
2021/01/07 10:12:09;;;;;;;7.15;2.20;;;3.30;99.90;;;;;;5115360;27;20500;-69
2021/01/07 10:14:34;;;;;;;7.65;2.45;;;3.30;99.90;;;;;;5113308;27;20028;-69
2021/01/07 10:17:02;;;;;;;6.60;2.50;;;3.30;99.90;;;;;;5113222;27;20023;-69
2021/01/07 10:19:31;;;;;;;13.23;3.50;;;3.30;99.90;;;;;;5110005;27;20438;-68
2021/01/07 10:22:14;;;;;;;4.47;2.78;;;3.40;99.90;;;;;;5108665;28;20027;-69
2021/01/07 10:24:45;;;;;;;4.30;2.22;;;3.40;99.90;;;;;;5110787;27;20547;-71
2021/01/07 10:27:14;;;;;;;6.25;1.70;;;3.30;99.90;;;;;;5110057;28;20035;-71
2021/01/07 10:29:40;;;;;;;2.75;1.40;;;3.20;99.90;;;;;;5109689;27;20054;-69
2021/01/07 10:32:08;;;;;;;5.07;1.20;;;3.10;99.90;;;;;;5131940;27;20031;-71
2021/01/07 10:34:37;;;;;;;6.50;1.58;;;3.00;99.90;;;;;;5118444;27;20356;-69
2021/01/07 10:37:05;;;;;;;3.75;1.40;;;3.10;99.90;;;;;;5110597;28;20050;-69
2021/01/07 10:39:33;;;;;;;5.03;1.50;;;3.10;99.90;;;;;;5110291;28;20024;-69
2021/01/07 10:41:59;;;;;;;6.88;2.00;;;3.10;99.90;;;;;;5110328;28;20039;-70
2021/01/07 10:44:28;;;;;;;6.30;1.70;;;3.10;99.90;;;;;;5110446;28;20028;-72
2021/01/07 10:47:00;;;;;;;3.78;1.63;;;3.20;99.90;;;;;;5111567;28;20033;-68
2021/01/07 10:49:28;;;;;;;10.80;2.03;;;3.20;99.90;;;;;;5111354;28;20024;-71
2021/01/07 10:52:12;;;;;;;8.60;1.77;;;3.30;99.90;;;;;;5110011;28;20103;-69
2021/01/07 10:55:11;;;;;;;4.85;1.85;;;3.40;99.90;;;;;;5108204;28;20054;-71
2021/01/07 10:58:16;;;;;;;3.20;1.33;;;3.40;99.90;;;;;;5110480;28;20098;-70
2021/01/07 11:01:04;;;;;;;3.17;1.33;;;3.40;99.90;;;;;;5112527;27;20094;-69
2021/01/07 11:03:58;;;;;;;5.13;1.25;;;3.40;99.90;;;;;;5119003;27;20008;-69
2021/01/07 11:06:31;;;;;;;7.30;2.00;;;3.40;99.90;;;;;;5111267;27;20032;-68
2021/01/07 11:09:13;;;;;;;4.13;1.08;;;3.50;99.90;;;;;;5122257;27;20049;-69
2021/01/07 11:11:48;;;;;;;5.20;1.35;;;3.50;99.90;;;;;;5102894;28;20019;-70
2021/01/07 11:14:24;;;;;;;3.33;1.35;;;3.40;99.90;;;;;;5122192;27;20027;-70
2021/01/07 11:16:58;;;;;;;5.82;1.30;;;3.40;99.90;;;;;;5118648;27;20036;-71
2021/01/07 11:19:25;;;;;;;5.10;1.23;;;3.40;99.90;;;;;;5107187;27;20181;-71
2021/01/07 11:22:01;;;;;;;3.42;1.40;;;3.40;99.90;;;;;;5113876;27;20533;-68
2021/01/07 11:24:27;;;;;;;6.43;1.45;;;3.40;99.90;;;;;;5110103;28;20024;-71
2021/01/07 11:26:54;;;;;;;6.20;1.60;;;3.40;99.90;;;;;;5109914;28;20383;-69
2021/01/07 11:29:22;;;;;;;6.32;1.63;;;3.50;99.90;;;;;;5110369;28;20024;-71
2021/01/07 11:31:52;;;;;;;3.42;1.40;;;3.60;99.90;;;;;;5107458;28;20027;-69
2021/01/07 11:34:22;;;;;;;5.32;1.48;;;3.60;99.90;;;;;;5109558;28;20020;-69
2021/01/07 11:36:56;;;;;;;7.65;1.73;;;3.60;99.90;;;;;;5109933;28;20077;-72
2021/01/07 11:39:28;;;;;;;7.93;1.83;;;3.60;99.90;;;;;;5072721;28;20327;-70
2021/01/07 11:42:09;;;;;;;10.05;1.85;;;3.70;99.90;;;;;;5099929;28;20028;-70
2021/01/07 11:44:56;;;;;;;7.82;1.70;;;3.70;99.90;;;;;;5106136;28;20020;-69
2021/01/07 11:47:28;;;;;;;13.77;2.30;;;3.80;99.90;;;;;;5105253;28;20132;-69
2021/01/07 11:49:57;;;;;;;12.85;2.03;;;4.00;99.90;;;;;;5093595;28;20081;-70
2021/01/07 11:52:25;;;;;;;6.45;2.03;;;4.00;99.90;;;;;;5120005;28;20043;-71
2021/01/07 11:54:53;;;;;;;7.65;1.63;;;4.10;99.90;;;;;;5137791;27;20053;-71
2021/01/07 11:57:19;;;;;;;10.18;2.35;;;4.10;99.90;;;;;;5136980;27;20099;-70
2021/01/07 11:59:46;;;;;;;8.18;1.70;;;4.20;99.90;;;;;;5132863;28;20047;-68
2021/01/07 12:02:12;;;;;;;13.98;2.20;;;4.30;99.90;;;;;;5119650;28;20156;-70
2021/01/07 12:04:38;;;;;;;4.65;1.95;;;4.40;99.90;;;;;;5114253;28;20052;-68
2021/01/07 12:07:21;;;;;;;5.68;1.83;;;4.50;99.90;;;;;;5123664;27;20395;-69
2021/01/07 12:09:46;;;;;;;4.18;1.75;;;4.50;99.90;;;;;;5102705;28;20031;-69
2021/01/07 12:12:16;;;;;;;6.95;1.50;;;4.50;99.90;;;;;;5109233;28;20027;-69
2021/01/07 12:14:51;;;;;;;7.15;1.45;;;4.50;99.90;;;;;;5108396;28;20023;-69
2021/01/07 12:17:17;;;;;;;5.57;1.45;;;4.60;99.90;;;;;;5108163;28;20135;-68
2021/01/07 12:19:43;;;;;;;6.57;1.60;;;4.60;99.90;;;;;;5108641;28;20126;-70
2021/01/07 12:22:15;;;;;;;9.65;2.05;;;4.60;99.90;;;;;;5108981;28;20020;-70
2021/01/07 12:24:43;;;;;;;7.60;1.90;;;4.60;99.90;;;;;;5107912;28;20015;-70
2021/01/07 12:27:10;;;;;;;6.03;1.67;;;4.60;99.90;;;;;;5109307;28;20020;-69
2021/01/07 12:29:40;;;;;;;9.55;1.75;;;4.50;99.90;;;;;;5093946;28;20080;-69
2021/01/07 12:32:52;;;;;;;8.30;1.77;;;4.50;99.90;;;;;;5100249;28;20059;-69
2021/01/07 12:35:28;;;;;;;6.30;2.00;;;4.70;99.90;;;;;;5010159;28;20450;-67
2021/01/07 12:38:24;;;;;;;5.53;1.33;;;4.60;99.90;;;;;;5025105;28;20033;-69
2021/01/07 12:41:16;;;;;;;7.80;2.22;;;4.60;99.90;;;;;;5079455;28;20088;-68
2021/01/07 12:43:47;;;;;;;5.35;1.60;;;4.60;99.90;;;;;;5109246;28;20023;-68
2021/01/07 12:46:15;;;;;;;5.88;1.63;;;4.60;99.90;;;;;;5099768;28;20106;-68
2021/01/07 12:48:43;;;;;;;8.38;1.90;;;4.70;99.90;;;;;;5111952;28;20081;-69
2021/01/07 12:51:09;;;;;;;4.25;1.77;;;4.70;99.90;;;;;;5112342;28;20063;-68
2021/01/07 12:53:37;;;;;;;10.60;2.58;;;4.70;99.90;;;;;;5111833;28;20138;-68
2021/01/07 12:56:05;;;;;;;6.10;1.60;;;4.60;99.90;;;;;;5112880;28;20020;-69
2021/01/07 12:58:36;;;;;;;7.07;1.67;;;4.60;99.90;;;;;;5113100;28;20369;-68
2021/01/07 13:01:18;;;;;;;7.72;2.10;;;4.60;99.90;;;;;;5091828;28;20017;-69
2021/01/07 13:03:44;;;;;;;;;;;4.70;99.90;;;;;;5109571;28;20039;-69
2021/01/07 13:06:15;;;;;;;6.50;1.48;;;4.70;99.90;;;;;;5122734;27;19961;-67